RYR150 EPKK-EDDN
Flight info
| Callsign | RYR150 |
|---|---|
| Flight time | N/A |
| Altitude | 34000 |
| Route | ADADO DCT UTEVO DCT ETUDA DCT BALTU DCT DONAD DCT OKG N869 NIBIL/N0445F330 Q244 PIVIR PIVIR1V |
| Aircraft | B738/M-SDE2E3FGHIRWXY/LB1 |
Departure
| Time | 2026-05-05 16:03 |
|---|---|
| Airport | Kraków John Paul II International Airport (EPKK) |
Arrival
| Time | N/A |
|---|---|
| Airport | Nuremberg Airport (EDDN) |
| Time | Latitude | Longitude | Altitude | Speed | Heading |
|---|---|---|---|---|---|
| 2026-05-05 15:32 | 50.07505 | 19.80271 | 799 ft | 0 kts | 168° |
| 2026-05-05 15:55 | 50.07493 | 19.80275 | 799 ft | 6 kts | 168° |
| 2026-05-05 15:55 | 50.07444 | 19.80338 | 799 ft | 8 kts | 91° |
| 2026-05-05 15:55 | 50.07481 | 19.80382 | 799 ft | 12 kts | 19° |
| 2026-05-05 15:55 | 50.07596 | 19.80419 | 799 ft | 20 kts | 350° |
| 2026-05-05 15:56 | 50.07721 | 19.80378 | 799 ft | 14 kts | 347° |
| 2026-05-05 15:56 | 50.07777 | 19.80359 | 799 ft | 0 kts | 348° |
| 2026-05-05 16:00 | 50.07778 | 19.80359 | 799 ft | 1 kts | 348° |
| 2026-05-05 16:00 | 50.07793 | 19.80354 | 799 ft | 4 kts | 348° |
| 2026-05-05 16:00 | 50.07821 | 19.80344 | 799 ft | 3 kts | 348° |
| 2026-05-05 16:01 | 50.07838 | 19.80339 | 799 ft | 2 kts | 348° |
| 2026-05-05 16:01 | 50.07856 | 19.80333 | 799 ft | 4 kts | 348° |
| 2026-05-05 16:01 | 50.07922 | 19.80310 | 799 ft | 15 kts | 348° |
| 2026-05-05 16:01 | 50.08011 | 19.80216 | 799 ft | 14 kts | 273° |
| 2026-05-05 16:02 | 50.07995 | 19.80076 | 800 ft | 13 kts | 258° |
| 2026-05-05 16:02 | 50.07953 | 19.79773 | 799 ft | 58 kts | 257° |
| 2026-05-05 16:02 | 50.07822 | 19.78831 | 801 ft | 119 kts | 258° |
| 2026-05-05 16:02 | 50.07606 | 19.77335 | 811 ft | 166 kts | 250° |
| 2026-05-05 16:03 | 50.07336 | 19.75548 | 1337 ft | 167 kts | 257° |
| 2026-05-05 16:03 | 50.07108 | 19.73802 | 2068 ft | 162 kts | 255° |
| 2026-05-05 16:03 | 50.06891 | 19.72108 | 2861 ft | 156 kts | 253° |
| 2026-05-05 16:03 | 50.06660 | 19.70462 | 3545 ft | 158 kts | 252° |
| 2026-05-05 16:04 | 50.06405 | 19.68683 | 3871 ft | 184 kts | 253° |
| 2026-05-05 16:04 | 50.06107 | 19.66596 | 4095 ft | 208 kts | 254° |
| 2026-05-05 16:04 | 50.05773 | 19.64277 | 4339 ft | 228 kts | 254° |
| 2026-05-05 16:04 | 50.05419 | 19.61763 | 4632 ft | 251 kts | 254° |
| 2026-05-05 16:05 | 50.05039 | 19.59059 | 5293 ft | 258 kts | 253° |
| 2026-05-05 16:05 | 50.04657 | 19.56333 | 6182 ft | 257 kts | 255° |
| 2026-05-05 16:05 | 50.04272 | 19.53597 | 6924 ft | 261 kts | 254° |
| 2026-05-05 16:05 | 50.03878 | 19.50812 | 7574 ft | 266 kts | 254° |
| 2026-05-05 16:06 | 50.03477 | 19.47990 | 8352 ft | 268 kts | 255° |
| 2026-05-05 16:06 | 50.03070 | 19.45137 | 9059 ft | 272 kts | 255° |
| 2026-05-05 16:06 | 50.02670 | 19.42261 | 9847 ft | 273 kts | 259° |
| 2026-05-05 16:06 | 50.02689 | 19.39276 | 10261 ft | 291 kts | 275° |
| 2026-05-05 16:07 | 50.03001 | 19.36036 | 10410 ft | 314 kts | 276° |
| 2026-05-05 16:07 | 50.03370 | 19.32582 | 10651 ft | 332 kts | 277° |
| 2026-05-05 16:07 | 50.03756 | 19.29004 | 11194 ft | 338 kts | 276° |
| 2026-05-05 16:07 | 50.04141 | 19.25375 | 11888 ft | 341 kts | 276° |
| 2026-05-05 16:08 | 50.04520 | 19.21721 | 12563 ft | 345 kts | 276° |
| 2026-05-05 16:08 | 50.04897 | 19.18010 | 13268 ft | 348 kts | 275° |
| 2026-05-05 16:08 | 50.05268 | 19.14313 | 13955 ft | 351 kts | 275° |
| 2026-05-05 16:08 | 50.05644 | 19.10523 | 14564 ft | 355 kts | 275° |
| 2026-05-05 16:09 | 50.06019 | 19.06714 | 14802 ft | 358 kts | 275° |
| 2026-05-05 16:09 | 50.06398 | 19.02858 | 14809 ft | 358 kts | 275° |
| 2026-05-05 16:09 | 50.06773 | 18.99031 | 14818 ft | 358 kts | 275° |
| 2026-05-05 16:09 | 50.07145 | 18.95208 | 14826 ft | 359 kts | 275° |
| 2026-05-05 16:10 | 50.07520 | 18.91343 | 14819 ft | 359 kts | 275° |
| 2026-05-05 16:10 | 50.07890 | 18.87527 | 14817 ft | 358 kts | 275° |
| 2026-05-05 16:10 | 50.08261 | 18.83683 | 14824 ft | 359 kts | 275° |
| 2026-05-05 16:10 | 50.08629 | 18.79843 | 14815 ft | 359 kts | 275° |
| 2026-05-05 16:11 | 50.09041 | 18.75999 | 14861 ft | 364 kts | 278° |
| 2026-05-05 16:11 | 50.10792 | 18.64366 | 16930 ft | 370 kts | 280° |
| 2026-05-05 16:12 | 50.11376 | 18.60489 | 17541 ft | 374 kts | 280° |
| 2026-05-05 16:12 | 50.12548 | 18.52504 | 18749 ft | 381 kts | 280° |
| 2026-05-05 16:13 | 50.14097 | 18.40238 | 20469 ft | 387 kts | 277° |
| 2026-05-05 16:13 | 50.14527 | 18.36079 | 21007 ft | 390 kts | 277° |
| 2026-05-05 16:13 | 50.14961 | 18.31880 | 21529 ft | 393 kts | 277° |
| 2026-05-05 16:14 | 50.15849 | 18.23407 | 22527 ft | 400 kts | 278° |
| 2026-05-05 16:14 | 50.16764 | 18.14785 | 23517 ft | 406 kts | 278° |
| 2026-05-05 16:15 | 50.17681 | 18.06126 | 24410 ft | 409 kts | 278° |
| 2026-05-05 16:15 | 50.18612 | 17.97284 | 25265 ft | 412 kts | 278° |
| 2026-05-05 16:16 | 50.19543 | 17.88374 | 25944 ft | 420 kts | 278° |
| 2026-05-05 16:16 | 50.20477 | 17.79375 | 26792 ft | 422 kts | 278° |
| 2026-05-05 16:17 | 50.21129 | 17.70278 | 27509 ft | 425 kts | 269° |
| 2026-05-05 16:17 | 50.21079 | 17.65652 | 27873 ft | 427 kts | 268° |
| 2026-05-05 16:18 | 50.20979 | 17.56331 | 28614 ft | 430 kts | 269° |
| 2026-05-05 16:18 | 50.20855 | 17.51694 | 29213 ft | 425 kts | 263° |
| 2026-05-05 16:18 | 50.19486 | 17.42764 | 30133 ft | 422 kts | 253° |
| 2026-05-05 16:19 | 50.18619 | 17.38390 | 30517 ft | 421 kts | 253° |
| 2026-05-05 16:19 | 50.17749 | 17.34037 | 30920 ft | 420 kts | 253° |
| 2026-05-05 16:19 | 50.16038 | 17.25373 | 31712 ft | 417 kts | 253° |
| 2026-05-05 16:20 | 50.14358 | 17.16748 | 32460 ft | 414 kts | 253° |
| 2026-05-05 16:20 | 50.12691 | 17.08177 | 33206 ft | 411 kts | 253° |
| 2026-05-05 16:21 | 50.11027 | 16.99658 | 33811 ft | 412 kts | 253° |
| 2026-05-05 16:22 | 50.08503 | 16.86806 | 33777 ft | 410 kts | 253° |
| 2026-05-05 16:23 | 50.05178 | 16.70008 | 33772 ft | 406 kts | 253° |
| 2026-05-05 16:23 | 50.02952 | 16.58836 | 33776 ft | 407 kts | 253° |
| 2026-05-05 16:24 | 50.01561 | 16.50317 | 33760 ft | 406 kts | 263° |
| 2026-05-05 16:25 | 50.01756 | 16.37163 | 33761 ft | 407 kts | 273° |
| 2026-05-05 16:25 | 50.02285 | 16.23982 | 33762 ft | 407 kts | 272° |
| 2026-05-05 16:26 | 50.02907 | 16.06441 | 33753 ft | 407 kts | 272° |
| 2026-05-05 16:27 | 50.03202 | 15.97643 | 33746 ft | 407 kts | 272° |
| 2026-05-05 16:27 | 50.03487 | 15.88913 | 33751 ft | 407 kts | 272° |
| 2026-05-05 16:28 | 50.03767 | 15.80135 | 33747 ft | 406 kts | 272° |
| 2026-05-05 16:28 | 50.04041 | 15.71346 | 33748 ft | 406 kts | 272° |
| 2026-05-05 16:29 | 50.04308 | 15.62585 | 33747 ft | 406 kts | 272° |
| 2026-05-05 16:29 | 50.04569 | 15.53781 | 33749 ft | 406 kts | 272° |
| 2026-05-05 16:30 | 50.04823 | 15.45016 | 33746 ft | 406 kts | 271° |
| 2026-05-05 16:30 | 50.05069 | 15.36294 | 33752 ft | 406 kts | 271° |
| 2026-05-05 16:31 | 50.05310 | 15.27509 | 33753 ft | 406 kts | 271° |
| 2026-05-05 16:31 | 50.05543 | 15.18742 | 33753 ft | 406 kts | 271° |
| 2026-05-05 16:32 | 50.05771 | 15.09975 | 33755 ft | 405 kts | 271° |
| 2026-05-05 16:32 | 50.05991 | 15.01213 | 33757 ft | 405 kts | 271° |
| 2026-05-05 16:33 | 50.06205 | 14.92444 | 33753 ft | 405 kts | 271° |
| 2026-05-05 16:33 | 50.06412 | 14.83675 | 33754 ft | 405 kts | 271° |
| 2026-05-05 16:34 | 50.06612 | 14.74959 | 33748 ft | 404 kts | 271° |
| 2026-05-05 16:34 | 50.06805 | 14.66205 | 33750 ft | 404 kts | 271° |
| 2026-05-05 16:35 | 50.06992 | 14.57484 | 33745 ft | 404 kts | 271° |
| 2026-05-05 16:35 | 50.07172 | 14.48737 | 33750 ft | 404 kts | 270° |
| 2026-05-05 16:36 | 50.07346 | 14.39987 | 33748 ft | 404 kts | 270° |
| 2026-05-05 16:36 | 50.07513 | 14.31255 | 33749 ft | 404 kts | 270° |
| 2026-05-05 16:37 | 50.07673 | 14.22563 | 33744 ft | 404 kts | 270° |
| 2026-05-05 16:37 | 50.07826 | 14.13929 | 33738 ft | 388 kts | 270° |
| 2026-05-05 16:38 | 50.07967 | 14.05648 | 33742 ft | 380 kts | 270° |
| 2026-05-05 16:38 | 50.08034 | 14.01524 | 33640 ft | 382 kts | 270° |
| 2026-05-05 16:38 | 50.08100 | 13.97398 | 33373 ft | 378 kts | 270° |
| 2026-05-05 16:39 | 50.08164 | 13.93319 | 32976 ft | 374 kts | 270° |
| 2026-05-05 16:39 | 50.08225 | 13.89353 | 32654 ft | 370 kts | 270° |
| 2026-05-05 16:39 | 50.08285 | 13.85359 | 32272 ft | 367 kts | 270° |
| 2026-05-05 16:39 | 50.08342 | 13.81411 | 31927 ft | 364 kts | 269° |
| 2026-05-05 16:40 | 50.08398 | 13.77483 | 31555 ft | 361 kts | 269° |
| 2026-05-05 16:40 | 50.08453 | 13.73584 | 31199 ft | 358 kts | 269° |
| 2026-05-05 16:40 | 50.08506 | 13.69711 | 30858 ft | 356 kts | 269° |
| 2026-05-05 16:40 | 50.08557 | 13.65871 | 30502 ft | 353 kts | 269° |
| 2026-05-05 16:41 | 50.08606 | 13.62058 | 30155 ft | 351 kts | 269° |
| 2026-05-05 16:41 | 50.08654 | 13.58263 | 29812 ft | 349 kts | 269° |
| 2026-05-05 16:41 | 50.08700 | 13.54542 | 29415 ft | 347 kts | 269° |
| 2026-05-05 16:41 | 50.08745 | 13.50811 | 29052 ft | 343 kts | 269° |
| 2026-05-05 16:42 | 50.08788 | 13.47105 | 28685 ft | 340 kts | 269° |
| 2026-05-05 16:42 | 50.08831 | 13.43447 | 28352 ft | 337 kts | 269° |
| 2026-05-05 16:42 | 50.08871 | 13.39816 | 27982 ft | 334 kts | 269° |
| 2026-05-05 16:42 | 50.08910 | 13.36206 | 27640 ft | 331 kts | 269° |
| 2026-05-05 16:43 | 50.08945 | 13.32638 | 27295 ft | 328 kts | 268° |
| 2026-05-05 16:43 | 50.08901 | 13.29092 | 26929 ft | 326 kts | 265° |
| 2026-05-05 16:43 | 50.08804 | 13.25572 | 26578 ft | 325 kts | 265° |
| 2026-05-05 16:43 | 50.08698 | 13.22047 | 26244 ft | 324 kts | 265° |
| 2026-05-05 16:44 | 50.08594 | 13.18550 | 25916 ft | 324 kts | 265° |
| 2026-05-05 16:44 | 50.08492 | 13.14997 | 25583 ft | 331 kts | 265° |
| 2026-05-05 16:44 | 50.08393 | 13.11422 | 25260 ft | 340 kts | 265° |
| 2026-05-05 16:44 | 50.08293 | 13.07717 | 24893 ft | 341 kts | 265° |
| 2026-05-05 16:45 | 50.08192 | 13.04019 | 24533 ft | 339 kts | 265° |
| 2026-05-05 16:45 | 50.08091 | 13.00361 | 24181 ft | 338 kts | 265° |
| 2026-05-05 16:45 | 50.07995 | 12.96690 | 23689 ft | 341 kts | 266° |
| 2026-05-05 16:45 | 50.07905 | 12.93004 | 23289 ft | 341 kts | 266° |
| 2026-05-05 16:46 | 50.07816 | 12.89313 | 22867 ft | 340 kts | 266° |
| 2026-05-05 16:46 | 50.07728 | 12.85698 | 22504 ft | 338 kts | 266° |
| 2026-05-05 16:46 | 50.07637 | 12.82055 | 22143 ft | 335 kts | 265° |
| 2026-05-05 16:46 | 50.07546 | 12.78450 | 21805 ft | 332 kts | 265° |
| 2026-05-05 16:47 | 50.07454 | 12.74866 | 21461 ft | 330 kts | 265° |
| 2026-05-05 16:47 | 50.07362 | 12.71320 | 21120 ft | 327 kts | 265° |
| 2026-05-05 16:47 | 50.07269 | 12.67800 | 20786 ft | 324 kts | 265° |
| 2026-05-05 16:47 | 50.07176 | 12.64304 | 20455 ft | 322 kts | 265° |
| 2026-05-05 16:48 | 50.07082 | 12.60836 | 20126 ft | 320 kts | 265° |
| 2026-05-05 16:48 | 50.06988 | 12.57379 | 19798 ft | 318 kts | 265° |
| 2026-05-05 16:48 | 50.06893 | 12.53929 | 19476 ft | 316 kts | 265° |
| 2026-05-05 16:48 | 50.06798 | 12.50512 | 19148 ft | 315 kts | 265° |
| 2026-05-05 16:49 | 50.06703 | 12.47117 | 18827 ft | 313 kts | 265° |
| 2026-05-05 16:49 | 50.06606 | 12.43733 | 18508 ft | 312 kts | 265° |
| 2026-05-05 16:49 | 50.06403 | 12.40431 | 18179 ft | 309 kts | 256° |
| 2026-05-05 16:49 | 50.05753 | 12.37220 | 17839 ft | 306 kts | 247° |
| 2026-05-05 16:50 | 50.04985 | 12.34173 | 17479 ft | 305 kts | 246° |
| 2026-05-05 16:50 | 50.04201 | 12.31119 | 17144 ft | 303 kts | 246° |
| 2026-05-05 16:50 | 50.03417 | 12.28060 | 16824 ft | 301 kts | 246° |
| 2026-05-05 16:50 | 50.02654 | 12.25064 | 16513 ft | 299 kts | 246° |
| 2026-05-05 16:51 | 50.01896 | 12.22073 | 16205 ft | 297 kts | 246° |
| 2026-05-05 16:51 | 50.01144 | 12.19093 | 15890 ft | 295 kts | 246° |
| 2026-05-05 16:51 | 50.00402 | 12.16153 | 15595 ft | 293 kts | 246° |
| 2026-05-05 16:51 | 49.99660 | 12.13207 | 15301 ft | 291 kts | 246° |
| 2026-05-05 16:52 | 49.98921 | 12.10281 | 14992 ft | 290 kts | 246° |
| 2026-05-05 16:52 | 49.98186 | 12.07367 | 14812 ft | 290 kts | 246° |
| 2026-05-05 16:52 | 49.97450 | 12.04457 | 14773 ft | 287 kts | 246° |
| 2026-05-05 16:52 | 49.96734 | 12.01619 | 14754 ft | 277 kts | 245° |
| 2026-05-05 16:53 | 49.96047 | 11.98900 | 14737 ft | 265 kts | 245° |
| 2026-05-05 16:53 | 49.95386 | 11.96292 | 14734 ft | 252 kts | 245° |
| 2026-05-05 16:53 | 49.94759 | 11.93822 | 14742 ft | 242 kts | 245° |
| 2026-05-05 16:53 | 49.94153 | 11.91423 | 14723 ft | 237 kts | 245° |
| 2026-05-05 16:54 | 49.93539 | 11.88985 | 14265 ft | 249 kts | 245° |
| 2026-05-05 16:54 | 49.92933 | 11.86561 | 14259 ft | 234 kts | 245° |
| 2026-05-05 16:54 | 49.92357 | 11.84257 | 14110 ft | 224 kts | 245° |
| 2026-05-05 16:54 | 49.91794 | 11.82017 | 13826 ft | 222 kts | 245° |
| 2026-05-05 16:55 | 49.91233 | 11.79790 | 13520 ft | 222 kts | 244° |
| 2026-05-05 16:55 | 49.90673 | 11.77568 | 13211 ft | 220 kts | 244° |
| 2026-05-05 16:55 | 49.90113 | 11.75346 | 12914 ft | 218 kts | 245° |
| 2026-05-05 16:55 | 49.89567 | 11.73181 | 12649 ft | 217 kts | 245° |
| 2026-05-05 16:56 | 49.89018 | 11.71013 | 12388 ft | 216 kts | 245° |
| 2026-05-05 16:56 | 49.88468 | 11.68836 | 12134 ft | 217 kts | 245° |
| 2026-05-05 16:56 | 49.87936 | 11.66684 | 11888 ft | 217 kts | 246° |
| 2026-05-05 16:56 | 49.87420 | 11.64477 | 11635 ft | 218 kts | 246° |
| 2026-05-05 16:57 | 49.86907 | 11.62274 | 11390 ft | 218 kts | 246° |
| 2026-05-05 16:57 | 49.86388 | 11.60054 | 11134 ft | 218 kts | 246° |
| 2026-05-05 16:57 | 49.85871 | 11.57849 | 10891 ft | 217 kts | 246° |
| 2026-05-05 16:57 | 49.85334 | 11.55657 | 10637 ft | 216 kts | 239° |
| 2026-05-05 16:58 | 49.84367 | 11.53953 | 10389 ft | 211 kts | 214° |
| 2026-05-05 16:58 | 49.83059 | 11.52975 | 10135 ft | 208 kts | 196° |
| 2026-05-05 16:58 | 49.81650 | 11.52509 | 9835 ft | 207 kts | 191° |
| 2026-05-05 16:58 | 49.80237 | 11.52134 | 9474 ft | 207 kts | 191° |
| 2026-05-05 16:59 | 49.78833 | 11.51766 | 9153 ft | 206 kts | 191° |
| 2026-05-05 16:59 | 49.77429 | 11.51394 | 8908 ft | 204 kts | 191° |
| 2026-05-05 16:59 | 49.76034 | 11.51017 | 8680 ft | 205 kts | 191° |
| 2026-05-05 16:59 | 49.74622 | 11.50631 | 8467 ft | 207 kts | 191° |
| 2026-05-05 17:00 | 49.73197 | 11.50237 | 8245 ft | 210 kts | 191° |
| 2026-05-05 17:00 | 49.71755 | 11.49837 | 8004 ft | 210 kts | 191° |
| 2026-05-05 17:00 | 49.70312 | 11.49433 | 7784 ft | 211 kts | 191° |
| 2026-05-05 17:00 | 49.68864 | 11.49027 | 7546 ft | 212 kts | 191° |
| 2026-05-05 17:01 | 49.67412 | 11.48619 | 7319 ft | 213 kts | 191° |
| 2026-05-05 17:01 | 49.65954 | 11.48208 | 7083 ft | 214 kts | 191° |
| 2026-05-05 17:01 | 49.64484 | 11.47791 | 6854 ft | 214 kts | 191° |
| 2026-05-05 17:01 | 49.63030 | 11.47371 | 6605 ft | 211 kts | 191° |
| 2026-05-05 17:02 | 49.61598 | 11.46954 | 6357 ft | 208 kts | 191° |
| 2026-05-05 17:02 | 49.60180 | 11.46538 | 6107 ft | 208 kts | 191° |
| 2026-05-05 17:02 | 49.58752 | 11.46112 | 5859 ft | 210 kts | 191° |
| 2026-05-05 17:02 | 49.57325 | 11.45684 | 5614 ft | 211 kts | 191° |
| 2026-05-05 17:03 | 49.55879 | 11.45248 | 5364 ft | 213 kts | 191° |
| 2026-05-05 17:03 | 49.54410 | 11.44872 | 5099 ft | 214 kts | 179° |
| 2026-05-05 17:03 | 49.53077 | 11.45682 | 4859 ft | 210 kts | 130° |
| 2026-05-05 17:03 | 49.52570 | 11.47726 | 4847 ft | 210 kts | 84° |
| 2026-05-05 17:04 | 49.52951 | 11.49870 | 4841 ft | 209 kts | 74° |
| 2026-05-05 17:04 | 49.53209 | 11.52084 | 4799 ft | 210 kts | 84° |
| 2026-05-05 17:04 | 49.53271 | 11.54315 | 4772 ft | 208 kts | 89° |
| 2026-05-05 17:04 | 49.53312 | 11.56512 | 4763 ft | 205 kts | 83° |
| 2026-05-05 17:05 | 49.53428 | 11.58728 | 4763 ft | 209 kts | 87° |
| 2026-05-05 17:05 | 49.53399 | 11.60971 | 4751 ft | 209 kts | 93° |
| 2026-05-05 17:05 | 49.53296 | 11.63193 | 4755 ft | 208 kts | 95° |
| 2026-05-05 17:05 | 49.52698 | 11.65166 | 4763 ft | 209 kts | 140° |
| 2026-05-05 17:06 | 49.51341 | 11.65905 | 4756 ft | 214 kts | 186° |
| 2026-05-05 17:06 | 49.49931 | 11.65194 | 4781 ft | 215 kts | 201° |
| 2026-05-05 17:06 | 49.48523 | 11.64470 | 4766 ft | 217 kts | 195° |
| 2026-05-05 17:06 | 49.47049 | 11.63921 | 4774 ft | 217 kts | 192° |
| 2026-05-05 17:07 | 49.45681 | 11.63038 | 4739 ft | 211 kts | 224° |
| 2026-05-05 17:07 | 49.44880 | 11.61237 | 4753 ft | 203 kts | 251° |
| 2026-05-05 17:07 | 49.44689 | 11.59140 | 4762 ft | 199 kts | 275° |
| 2026-05-05 17:07 | 49.44867 | 11.57046 | 4781 ft | 197 kts | 280° |
| 2026-05-05 17:08 | 49.45091 | 11.54956 | 4775 ft | 198 kts | 280° |
| 2026-05-05 17:08 | 49.45316 | 11.52865 | 4775 ft | 199 kts | 280° |
| 2026-05-05 17:08 | 49.45543 | 11.50778 | 4769 ft | 199 kts | 280° |
| 2026-05-05 17:08 | 49.45763 | 11.48685 | 4770 ft | 199 kts | 280° |
| 2026-05-05 17:09 | 49.45977 | 11.46615 | 4774 ft | 199 kts | 279° |
| 2026-05-05 17:09 | 49.46192 | 11.44518 | 4775 ft | 197 kts | 279° |
| 2026-05-05 17:09 | 49.46400 | 11.42483 | 4780 ft | 188 kts | 279° |
| 2026-05-05 17:09 | 49.46600 | 11.40520 | 4758 ft | 182 kts | 279° |
| 2026-05-05 17:10 | 49.46794 | 11.38606 | 4771 ft | 181 kts | 279° |
| 2026-05-05 17:10 | 49.46991 | 11.36698 | 4776 ft | 179 kts | 281° |
| 2026-05-05 17:10 | 49.47225 | 11.34820 | 4808 ft | 183 kts | 281° |
| 2026-05-05 17:10 | 49.47431 | 11.32941 | 4766 ft | 172 kts | 279° |
| 2026-05-05 17:11 | 49.47606 | 11.31175 | 4744 ft | 167 kts | 279° |
| 2026-05-05 17:11 | 49.47782 | 11.29358 | 4494 ft | 172 kts | 278° |
| 2026-05-05 17:11 | 49.47898 | 11.28150 | 4218 ft | 171 kts | 278° |
| 2026-05-05 17:11 | 49.48125 | 11.25778 | 3704 ft | 161 kts | 278° |
| 2026-05-05 17:12 | 49.48233 | 11.24662 | 3502 ft | 156 kts | 278° |
| 2026-05-05 17:12 | 49.48391 | 11.23026 | 3161 ft | 153 kts | 278° |
| 2026-05-05 17:12 | 49.48574 | 11.21116 | 2640 ft | 151 kts | 281° |
| 2026-05-05 17:12 | 49.48727 | 11.19535 | 2290 ft | 149 kts | 281° |
| 2026-05-05 17:13 | 49.48877 | 11.18003 | 2106 ft | 142 kts | 281° |
| 2026-05-05 17:13 | 49.49023 | 11.16514 | 1936 ft | 138 kts | 279° |